Time;durP1;ratioP1;P1;durP2;ratioP2;P2;SDS_P1;SDS_P2;PMS_P1;PMS_P2;Temp;Humidity;BMP_temperature;BMP_pressure;BME280_temperature;BME280_humidity;BME280_pressure;Samples;Min_cycle;Max_cycle;Signal;HPM_P1;HPM_P2
2021/11/01 11:25:40;;;;;;;5.30;1.40;;;11.90;99.90;;;;;;5090327;28;20168;-70
2021/11/01 11:28:16;;;;;;;6.07;1.20;;;12.00;99.90;;;;;;5089882;28;20213;-71
2021/11/01 11:31:24;;;;;;;1.40;1.30;;;12.00;99.90;;;;;;5090300;28;20164;-76
2021/11/01 11:37:14;;;;;;;5.22;1.50;;;12.10;99.90;;;;;;5090119;28;20176;-80
2021/11/01 11:39:32;;;;;;;1.85;1.60;;;12.10;99.90;;;;;;5088647;28;20196;-77
2021/11/01 11:47:47;;;;;;;5.10;1.77;;;11.90;99.90;;;;;;5090280;28;20230;-76
2021/11/01 11:50:26;;;;;;;4.63;1.50;;;11.90;99.90;;;;;;5090020;28;20168;-78
2021/11/01 11:52:52;;;;;;;3.40;1.50;;;12.00;99.90;;;;;;5090034;28;20168;-76
2021/11/01 11:55:29;;;;;;;2.60;1.27;;;12.00;99.90;;;;;;5089930;28;20248;-77
2021/11/01 11:58:00;;;;;;;1.63;0.98;;;12.00;99.90;;;;;;5089915;28;20189;-77
2021/11/01 12:00:32;;;;;;;4.53;1.92;;;12.10;99.90;;;;;;5088376;28;20174;-77
2021/11/01 12:03:10;;;;;;;2.60;1.45;;;12.10;99.90;;;;;;5089606;28;20215;-78
2021/11/01 12:05:41;;;;;;;3.83;1.33;;;12.30;99.90;;;;;;5089627;28;20247;-78
2021/11/01 12:08:10;;;;;;;3.53;1.50;;;12.20;99.90;;;;;;5089599;28;20689;-78
2021/11/01 12:11:12;;;;;;;1.98;1.35;;;12.20;99.90;;;;;;5088141;28;20172;-79
2021/11/01 12:18:56;;;;;;;6.47;1.50;;;11.90;99.90;;;;;;5076186;28;20291;-78
2021/11/01 12:21:23;;;;;;;4.47;1.30;;;11.80;99.90;;;;;;5074812;28;20546;-79
2021/11/01 12:23:49;;;;;;;2.10;1.50;;;11.80;99.90;;;;;;5074531;28;20169;-78
2021/11/01 12:26:20;;;;;;;1.75;1.30;;;11.80;99.90;;;;;;5075759;28;20171;-79
2021/11/01 12:29:01;;;;;;;1.77;1.67;;;12.00;99.90;;;;;;5074466;28;20198;-78
2021/11/01 12:31:29;;;;;;;2.90;1.35;;;11.90;99.90;;;;;;5075750;28;20249;-78
2021/11/01 12:36:35;;;;;;;2.05;1.52;;;12.20;99.90;;;;;;5075660;28;20222;-78
2021/11/01 12:39:10;;;;;;;10.38;1.80;;;12.20;99.90;;;;;;5074255;28;20226;-78
2021/11/01 12:41:54;;;;;;;2.20;1.17;;;12.20;99.90;;;;;;5075335;28;20195;-78
2021/11/01 12:57:30;;;;;;;1.40;1.27;;;12.50;99.90;;;;;;5075810;28;20218;-78
2021/11/01 12:59:57;;;;;;;3.30;1.50;;;12.60;99.90;;;;;;5075297;28;20165;-78
2021/11/01 13:02:26;;;;;;;4.78;2.22;;;12.50;99.90;;;;;;5075044;28;20247;-78
2021/11/01 13:04:56;;;;;;;2.83;1.27;;;12.50;99.90;;;;;;5075293;28;20514;-78
2021/11/01 13:07:54;;;;;;;1.67;1.42;;;12.50;99.90;;;;;;5075259;28;20188;-78
2021/11/01 13:13:20;;;;;;;7.63;1.92;;;12.60;99.90;;;;;;5075371;28;20176;-78
2021/11/01 13:18:29;;;;;;;2.75;1.48;;;12.50;99.90;;;;;;5074904;28;20183;-78
2021/11/01 13:21:01;;;;;;;2.25;1.63;;;12.40;99.90;;;;;;5075185;28;20169;-78
2021/11/01 13:23:33;;;;;;;6.10;1.60;;;12.50;99.90;;;;;;5074951;28;20192;-78
2021/11/01 13:38:58;;;;;;;4.30;2.55;;;12.60;99.90;;;;;;5074933;28;20172;-78
2021/11/01 13:41:29;;;;;;;2.38;1.90;;;12.90;99.90;;;;;;5074423;28;20207;-78
2021/11/01 13:44:12;;;;;;;2.20;1.33;;;13.00;99.90;;;;;;5074593;28;20217;-78
2021/11/01 13:46:47;;;;;;;1.48;1.38;;;13.00;99.90;;;;;;5074600;28;20186;-78
2021/11/01 13:49:14;;;;;;;5.05;1.38;;;13.00;99.90;;;;;;5074770;28;20164;-77
2021/11/01 13:51:42;;;;;;;4.97;1.50;;;13.40;99.90;;;;;;5074614;28;20238;-77
2021/11/01 13:54:17;;;;;;;3.40;1.23;;;13.50;99.90;;;;;;5074547;28;20530;-78
2021/11/01 13:56:55;;;;;;;9.40;1.30;;;13.80;99.90;;;;;;5074446;28;20176;-78
2021/11/01 14:29:02;;;;;;;5.60;1.40;;;12.50;99.90;;;;;;5074033;28;20179;-77
2021/11/01 15:01:24;;;;;;;3.42;1.50;;;11.90;99.90;;;;;;5073563;28;20587;-77
2021/11/01 15:14:10;;;;;;;1.60;1.50;;;12.00;99.90;;;;;;5073243;28;20305;-77
2021/11/01 15:16:47;;;;;;;4.05;2.00;;;12.10;99.90;;;;;;5073367;28;20160;-78
2021/11/01 15:21:54;;;;;;;1.67;1.58;;;12.20;99.90;;;;;;5073375;28;20195;-77
2021/11/01 15:24:29;;;;;;;9.95;1.80;;;12.10;99.90;;;;;;5073352;28;20198;-77
